sensor_id;sensor_type;location;lat;lon;timestamp;noise_LAeq;noise_LA_min;noise_LA_max;noise_LA01;noise_LA95
37223;Laerm;28026;48.562;14.440;2023-08-12T00:01:20;37.43;32.93;43.72;;
37223;Laerm;28026;48.562;14.440;2023-08-12T00:03:52;37.55;32.35;40.80;;
37223;Laerm;28026;48.562;14.440;2023-08-12T00:06:22;37.81;32.35;61.11;;
37223;Laerm;28026;48.562;14.440;2023-08-12T00:08:53;37.27;31.68;49.80;;
37223;Laerm;28026;48.562;14.440;2023-08-12T00:11:24;38.61;33.90;53.39;;
37223;Laerm;28026;48.562;14.440;2023-08-12T00:13:55;37.55;31.68;40.63;;
37223;Laerm;28026;48.562;14.440;2023-08-12T00:16:26;37.90;32.35;41.14;;
37223;Laerm;28026;48.562;14.440;2023-08-12T00:18:57;41.92;31.68;61.61;;
37223;Laerm;28026;48.562;14.440;2023-08-12T00:21:28;37.16;31.68;40.33;;
37223;Laerm;28026;48.562;14.440;2023-08-12T00:23:59;38.79;32.35;43.09;;
37223;Laerm;28026;48.562;14.440;2023-08-12T00:26:30;38.73;32.93;42.71;;
37223;Laerm;28026;48.562;14.440;2023-08-12T00:29:01;37.65;32.35;43.19;;
37223;Laerm;28026;48.562;14.440;2023-08-12T00:31:33;37.98;29.92;42.88;;
37223;Laerm;28026;48.562;14.440;2023-08-12T00:34:04;37.40;31.68;40.13;;
37223;Laerm;28026;48.562;14.440;2023-08-12T00:36:34;37.19;30.89;40.23;;
37223;Laerm;28026;48.562;14.440;2023-08-12T00:39:05;37.26;31.68;47.30;;
37223;Laerm;28026;48.562;14.440;2023-08-12T00:41:36;37.28;30.89;46.69;;
37223;Laerm;28026;48.562;14.440;2023-08-12T00:44:07;37.63;32.35;45.60;;
37223;Laerm;28026;48.562;14.440;2023-08-12T00:46:41;38.01;32.35;56.40;;
37223;Laerm;28026;48.562;14.440;2023-08-12T00:49:13;37.35;32.35;40.43;;
37223;Laerm;28026;48.562;14.440;2023-08-12T00:51:45;37.41;32.93;44.07;;
37223;Laerm;28026;48.562;14.440;2023-08-12T00:54:19;38.85;34.31;42.22;;
37223;Laerm;28026;48.562;14.440;2023-08-12T00:56:51;40.19;32.93;50.46;;
37223;Laerm;28026;48.562;14.440;2023-08-12T00:59:25;37.29;31.68;40.62;;
37223;Laerm;28026;48.562;14.440;2023-08-12T01:01:56;37.62;31.68;40.71;;
37223;Laerm;28026;48.562;14.440;2023-08-12T01:04:27;37.77;31.68;43.09;;
37223;Laerm;28026;48.562;14.440;2023-08-12T01:06:58;37.16;30.89;41.30;;
37223;Laerm;28026;48.562;14.440;2023-08-12T01:09:30;37.16;31.68;45.75;;
37223;Laerm;28026;48.562;14.440;2023-08-12T01:12:18;37.61;29.92;44.31;;
37223;Laerm;28026;48.562;14.440;2023-08-12T01:15:08;37.13;31.68;44.80;;
37223;Laerm;28026;48.562;14.440;2023-08-12T01:17:43;37.35;32.35;40.62;;
37223;Laerm;28026;48.562;14.440;2023-08-12T01:20:15;37.34;30.89;41.82;;
37223;Laerm;28026;48.562;14.440;2023-08-12T01:22:47;38.70;32.93;42.65;;
37223;Laerm;28026;48.562;14.440;2023-08-12T01:25:19;44.59;37.32;53.02;;
37223;Laerm;28026;48.562;14.440;2023-08-12T01:27:50;42.49;35.36;50.42;;
37223;Laerm;28026;48.562;14.440;2023-08-12T01:30:21;37.67;32.93;41.46;;
37223;Laerm;28026;48.562;14.440;2023-08-12T01:33:12;37.74;32.93;41.53;;
37223;Laerm;28026;48.562;14.440;2023-08-12T01:36:06;38.50;33.44;43.58;;
37223;Laerm;28026;48.562;14.440;2023-08-12T01:38:41;38.20;29.92;43.14;;
37223;Laerm;28026;48.562;14.440;2023-08-12T01:41:15;39.07;32.58;44.90;;
37223;Laerm;28026;48.562;14.440;2023-08-12T01:43:47;41.22;35.94;47.76;;
37223;Laerm;28026;48.562;14.440;2023-08-12T01:46:18;40.34;34.69;49.16;;
37223;Laerm;28026;48.562;14.440;2023-08-12T01:48:49;37.62;32.93;42.93;;
37223;Laerm;28026;48.562;14.440;2023-08-12T01:51:20;37.28;32.35;40.62;;
37223;Laerm;28026;48.562;14.440;2023-08-12T01:53:51;37.83;31.68;42.47;;
37223;Laerm;28026;48.562;14.440;2023-08-12T01:56:21;37.22;32.58;40.18;;
37223;Laerm;28026;48.562;14.440;2023-08-12T01:58:52;36.94;31.68;41.82;;
37223;Laerm;28026;48.562;14.440;2023-08-12T02:01:23;37.03;30.89;43.81;;
37223;Laerm;28026;48.562;14.440;2023-08-12T02:03:54;38.04;32.93;48.49;;
37223;Laerm;28026;48.562;14.440;2023-08-12T02:06:25;38.11;32.93;41.38;;
37223;Laerm;28026;48.562;14.440;2023-08-12T02:08:56;38.05;30.89;41.22;;
37223;Laerm;28026;48.562;14.440;2023-08-12T02:11:27;38.70;33.90;43.14;;
37223;Laerm;28026;48.562;14.440;2023-08-12T02:13:58;40.31;35.66;44.83;;
37223;Laerm;28026;48.562;14.440;2023-08-12T02:16:29;40.52;34.69;50.03;;
37223;Laerm;28026;48.562;14.440;2023-08-12T02:18:59;40.39;33.44;45.51;;
37223;Laerm;28026;48.562;14.440;2023-08-12T02:21:30;38.49;32.58;42.71;;
37223;Laerm;28026;48.562;14.440;2023-08-12T02:24:02;38.95;32.35;42.90;;
37223;Laerm;28026;48.562;14.440;2023-08-12T02:26:33;38.82;32.35;43.94;;
37223;Laerm;28026;48.562;14.440;2023-08-12T02:29:04;39.30;34.31;45.34;;
37223;Laerm;28026;48.562;14.440;2023-08-12T02:31:34;38.62;33.90;43.09;;
37223;Laerm;28026;48.562;14.440;2023-08-12T02:34:05;38.77;32.93;45.42;;
37223;Laerm;28026;48.562;14.440;2023-08-12T02:36:36;37.70;31.68;42.82;;
37223;Laerm;28026;48.562;14.440;2023-08-12T02:39:07;37.63;32.93;41.96;;
37223;Laerm;28026;48.562;14.440;2023-08-12T02:41:38;37.25;30.89;41.46;;
37223;Laerm;28026;48.562;14.440;2023-08-12T02:44:09;40.87;32.93;45.54;;
37223;Laerm;28026;48.562;14.440;2023-08-12T02:46:40;39.25;33.90;42.98;;
37223;Laerm;28026;48.562;14.440;2023-08-12T02:49:11;40.05;33.44;43.34;;
37223;Laerm;28026;48.562;14.440;2023-08-12T02:51:41;37.69;32.58;40.89;;
37223;Laerm;28026;48.562;14.440;2023-08-12T02:54:12;39.06;34.31;44.19;;
37223;Laerm;28026;48.562;14.440;2023-08-12T02:56:44;38.51;32.93;43.72;;
37223;Laerm;28026;48.562;14.440;2023-08-12T02:59:15;40.31;34.69;46.15;;
37223;Laerm;28026;48.562;14.440;2023-08-12T03:01:46;39.86;33.44;45.07;;
37223;Laerm;28026;48.562;14.440;2023-08-12T03:04:17;41.73;36.45;44.73;;
37223;Laerm;28026;48.562;14.440;2023-08-12T03:06:48;39.83;33.90;43.63;;
37223;Laerm;28026;48.562;14.440;2023-08-12T03:09:18;40.99;35.66;48.88;;
37223;Laerm;28026;48.562;14.440;2023-08-12T03:11:50;42.19;36.20;48.92;;
37223;Laerm;28026;48.562;14.440;2023-08-12T03:14:21;42.17;36.69;45.23;;
37223;Laerm;28026;48.562;14.440;2023-08-12T03:16:52;40.35;33.44;44.62;;
37223;Laerm;28026;48.562;14.440;2023-08-12T03:19:23;39.03;33.90;44.35;;
37223;Laerm;28026;48.562;14.440;2023-08-12T03:21:54;41.31;35.94;44.90;;
37223;Laerm;28026;48.562;14.440;2023-08-12T03:24:25;39.11;34.31;43.39;;
37223;Laerm;28026;48.562;14.440;2023-08-12T03:26:56;38.15;32.35;43.34;;
37223;Laerm;28026;48.562;14.440;2023-08-12T03:29:27;42.74;38.95;47.72;;
37223;Laerm;28026;48.562;14.440;2023-08-12T03:31:58;40.64;33.90;44.90;;
37223;Laerm;28026;48.562;14.440;2023-08-12T03:34:29;40.61;33.44;45.33;;
37223;Laerm;28026;48.562;14.440;2023-08-12T03:37:00;40.97;34.31;44.35;;
37223;Laerm;28026;48.562;14.440;2023-08-12T03:39:31;41.66;35.36;48.71;;
37223;Laerm;28026;48.562;14.440;2023-08-12T03:42:02;39.79;34.69;44.07;;
37223;Laerm;28026;48.562;14.440;2023-08-12T03:44:33;41.91;33.44;48.32;;
37223;Laerm;28026;48.562;14.440;2023-08-12T03:47:04;44.29;40.03;53.14;;
37223;Laerm;28026;48.562;14.440;2023-08-12T03:49:34;40.32;34.34;48.49;;
37223;Laerm;28026;48.562;14.440;2023-08-12T03:52:05;40.46;35.36;44.23;;
37223;Laerm;28026;48.562;14.440;2023-08-12T03:54:37;40.69;34.69;45.27;;
37223;Laerm;28026;48.562;14.440;2023-08-12T03:57:08;41.53;36.45;52.85;;
37223;Laerm;28026;48.562;14.440;2023-08-12T03:59:39;41.86;37.52;50.90;;
37223;Laerm;28026;48.562;14.440;2023-08-12T04:02:10;39.99;34.69;43.39;;
37223;Laerm;28026;48.562;14.440;2023-08-12T04:04:41;41.55;32.93;52.94;;
37223;Laerm;28026;48.562;14.440;2023-08-12T04:07:14;40.82;35.04;44.83;;
37223;Laerm;28026;48.562;14.440;2023-08-12T04:09:45;40.93;34.69;50.93;;
37223;Laerm;28026;48.562;14.440;2023-08-12T04:12:16;41.88;36.20;49.18;;
37223;Laerm;28026;48.562;14.440;2023-08-12T04:14:46;42.52;36.91;47.77;;
37223;Laerm;28026;48.562;14.440;2023-08-12T04:17:18;41.28;35.66;46.80;;
37223;Laerm;28026;48.562;14.440;2023-08-12T04:19:49;40.94;36.69;53.54;;
37223;Laerm;28026;48.562;14.440;2023-08-12T04:22:20;40.86;36.77;46.91;;
37223;Laerm;28026;48.562;14.440;2023-08-12T04:24:51;41.29;37.32;47.90;;
37223;Laerm;28026;48.562;14.440;2023-08-12T04:27:22;42.51;37.12;54.83;;
37223;Laerm;28026;48.562;14.440;2023-08-12T04:29:53;41.32;35.94;45.04;;
37223;Laerm;28026;48.562;14.440;2023-08-12T04:32:24;41.78;36.45;49.93;;
37223;Laerm;28026;48.562;14.440;2023-08-12T04:34:55;40.33;35.94;43.09;;
37223;Laerm;28026;48.562;14.440;2023-08-12T04:37:25;40.26;35.94;43.90;;
37223;Laerm;28026;48.562;14.440;2023-08-12T04:39:56;41.54;37.12;46.45;;
37223;Laerm;28026;48.562;14.440;2023-08-12T04:42:27;40.74;36.20;46.93;;
37223;Laerm;28026;48.562;14.440;2023-08-12T04:44:58;41.21;36.45;44.54;;
37223;Laerm;28026;48.562;14.440;2023-08-12T04:47:29;40.53;35.94;47.16;;
37223;Laerm;28026;48.562;14.440;2023-08-12T04:50:00;41.23;35.36;46.43;;
37223;Laerm;28026;48.562;14.440;2023-08-12T04:52:31;42.71;39.21;46.91;;
37223;Laerm;28026;48.562;14.440;2023-08-12T04:55:02;45.50;39.81;53.38;;
37223;Laerm;28026;48.562;14.440;2023-08-12T04:57:33;41.47;36.56;43.77;;
37223;Laerm;28026;48.562;14.440;2023-08-12T05:00:06;40.40;35.66;45.66;;
37223;Laerm;28026;48.562;14.440;2023-08-12T05:02:39;41.93;37.52;44.51;;
37223;Laerm;28026;48.562;14.440;2023-08-12T05:05:10;40.85;36.20;44.47;;
37223;Laerm;28026;48.562;14.440;2023-08-12T05:07:40;41.57;36.69;44.52;;
37223;Laerm;28026;48.562;14.440;2023-08-12T05:10:11;40.68;36.91;48.15;;
37223;Laerm;28026;48.562;14.440;2023-08-12T05:12:44;42.42;37.52;47.42;;
37223;Laerm;28026;48.562;14.440;2023-08-12T05:15:15;43.16;38.52;47.16;;
37223;Laerm;28026;48.562;14.440;2023-08-12T05:17:46;41.40;37.70;48.02;;
37223;Laerm;28026;48.562;14.440;2023-08-12T05:20:17;41.26;36.91;44.31;;
37223;Laerm;28026;48.562;14.440;2023-08-12T05:22:48;39.51;34.69;43.19;;
37223;Laerm;28026;48.562;14.440;2023-08-12T05:25:19;39.10;34.31;50.29;;
37223;Laerm;28026;48.562;14.440;2023-08-12T05:27:50;38.64;32.35;49.15;;
37223;Laerm;28026;48.562;14.440;2023-08-12T05:30:21;39.01;34.31;43.14;;
37223;Laerm;28026;48.562;14.440;2023-08-12T05:32:52;39.98;35.36;46.13;;
37223;Laerm;28026;48.562;14.440;2023-08-12T05:35:22;41.90;36.10;67.35;;
37223;Laerm;28026;48.562;14.440;2023-08-12T05:37:53;39.22;35.66;44.27;;
37223;Laerm;28026;48.562;14.440;2023-08-12T05:40:24;39.84;35.66;48.99;;
37223;Laerm;28026;48.562;14.440;2023-08-12T05:42:55;39.65;34.69;58.32;;
37223;Laerm;28026;48.562;14.440;2023-08-12T05:45:26;39.06;35.04;42.88;;
37223;Laerm;28026;48.562;14.440;2023-08-12T05:47:57;38.68;34.31;49.83;;
37223;Laerm;28026;48.562;14.440;2023-08-12T05:50:28;41.96;34.69;52.91;;
37223;Laerm;28026;48.562;14.440;2023-08-12T05:53:00;40.76;35.66;45.23;;
37223;Laerm;28026;48.562;14.440;2023-08-12T05:55:33;39.60;35.04;44.15;;
37223;Laerm;28026;48.562;14.440;2023-08-12T05:58:05;42.57;36.45;64.36;;
37223;Laerm;28026;48.562;14.440;2023-08-12T06:00:36;42.71;36.20;61.84;;
37223;Laerm;28026;48.562;14.440;2023-08-12T06:03:07;39.88;35.66;52.59;;
37223;Laerm;28026;48.562;14.440;2023-08-12T06:05:41;40.49;35.66;64.53;;
37223;Laerm;28026;48.562;14.440;2023-08-12T06:08:14;40.82;36.20;48.15;;
37223;Laerm;28026;48.562;14.440;2023-08-12T06:10:45;39.72;35.36;50.02;;
37223;Laerm;28026;48.562;14.440;2023-08-12T06:13:16;39.13;35.36;53.57;;
37223;Laerm;28026;48.562;14.440;2023-08-12T06:15:47;40.61;36.20;43.63;;
37223;Laerm;28026;48.562;14.440;2023-08-12T06:18:18;41.32;38.95;47.76;;
37223;Laerm;28026;48.562;14.440;2023-08-12T06:20:49;40.81;38.52;44.83;;
37223;Laerm;28026;48.562;14.440;2023-08-12T06:23:19;40.35;38.05;44.11;;
37223;Laerm;28026;48.562;14.440;2023-08-12T06:25:50;40.20;37.70;47.22;;
37223;Laerm;28026;48.562;14.440;2023-08-12T06:28:21;41.16;38.52;49.20;;
37223;Laerm;28026;48.562;14.440;2023-08-12T06:30:52;40.57;38.21;47.06;;
37223;Laerm;28026;48.562;14.440;2023-08-12T06:33:23;41.31;38.67;60.67;;
37223;Laerm;28026;48.562;14.440;2023-08-12T06:35:54;41.38;39.21;45.39;;
37223;Laerm;28026;48.562;14.440;2023-08-12T06:38:25;41.40;39.46;53.97;;
37223;Laerm;28026;48.562;14.440;2023-08-12T06:40:56;40.90;38.81;45.11;;
37223;Laerm;28026;48.562;14.440;2023-08-12T06:43:27;41.17;38.67;47.70;;
37223;Laerm;28026;48.562;14.440;2023-08-12T06:45:58;41.55;39.21;51.46;;
37223;Laerm;28026;48.562;14.440;2023-08-12T06:48:29;42.57;38.95;61.77;;
37223;Laerm;28026;48.562;14.440;2023-08-12T06:51:00;41.01;38.05;49.57;;
37223;Laerm;28026;48.562;14.440;2023-08-12T06:53:30;42.53;38.95;57.59;;
37223;Laerm;28026;48.562;14.440;2023-08-12T06:56:01;40.90;37.52;46.07;;
37223;Laerm;28026;48.562;14.440;2023-08-12T06:58:32;40.97;37.70;48.99;;
37223;Laerm;28026;48.562;14.440;2023-08-12T07:01:03;40.80;37.88;52.13;;
37223;Laerm;28026;48.562;14.440;2023-08-12T07:03:34;40.24;37.12;44.54;;
37223;Laerm;28026;48.562;14.440;2023-08-12T07:06:05;40.59;37.52;55.11;;
37223;Laerm;28026;48.562;14.440;2023-08-12T07:08:36;40.39;37.32;43.86;;
37223;Laerm;28026;48.562;14.440;2023-08-12T07:11:07;41.21;37.88;56.48;;
37223;Laerm;28026;48.562;14.440;2023-08-12T07:13:37;42.96;39.58;51.58;;
37223;Laerm;28026;48.562;14.440;2023-08-12T07:16:08;43.54;39.11;52.28;;
37223;Laerm;28026;48.562;14.440;2023-08-12T07:18:39;46.84;37.32;66.50;;
37223;Laerm;28026;48.562;14.440;2023-08-12T07:21:10;42.15;38.21;57.44;;
37223;Laerm;28026;48.562;14.440;2023-08-12T07:23:41;40.62;36.91;56.11;;
37223;Laerm;28026;48.562;14.440;2023-08-12T07:26:12;40.52;37.12;51.66;;
37223;Laerm;28026;48.562;14.440;2023-08-12T07:28:43;41.14;38.05;55.39;;
37223;Laerm;28026;48.562;14.440;2023-08-12T07:31:14;40.44;37.52;43.39;;
37223;Laerm;28026;48.562;14.440;2023-08-12T07:33:45;45.16;38.05;72.92;;
37223;Laerm;28026;48.562;14.440;2023-08-12T07:36:16;44.34;37.88;68.92;;
37223;Laerm;28026;48.562;14.440;2023-08-12T07:38:46;45.13;37.88;59.87;;
37223;Laerm;28026;48.562;14.440;2023-08-12T07:41:17;41.15;36.91;55.48;;
37223;Laerm;28026;48.562;14.440;2023-08-12T07:43:48;41.33;38.05;54.25;;
37223;Laerm;28026;48.562;14.440;2023-08-12T07:46:19;40.09;36.45;44.31;;
37223;Laerm;28026;48.562;14.440;2023-08-12T07:48:51;44.65;38.05;55.20;;
37223;Laerm;28026;48.562;14.440;2023-08-12T07:51:22;47.19;38.52;56.01;;
37223;Laerm;28026;48.562;14.440;2023-08-12T07:53:53;41.59;37.88;49.64;;
37223;Laerm;28026;48.562;14.440;2023-08-12T07:56:24;41.18;37.35;48.39;;
37223;Laerm;28026;48.562;14.440;2023-08-12T07:58:54;43.99;38.52;61.68;;
37223;Laerm;28026;48.562;14.440;2023-08-12T08:01:25;41.56;35.66;62.58;;
37223;Laerm;28026;48.562;14.440;2023-08-12T08:03:56;40.93;36.20;63.74;;
37223;Laerm;28026;48.562;14.440;2023-08-12T08:06:27;40.49;37.12;53.77;;
37223;Laerm;28026;48.562;14.440;2023-08-12T08:08:59;41.10;37.32;58.77;;
37223;Laerm;28026;48.562;14.440;2023-08-12T08:11:33;44.19;37.87;56.15;;
37223;Laerm;28026;48.562;14.440;2023-08-12T08:14:04;41.41;37.32;56.65;;
37223;Laerm;28026;48.562;14.440;2023-08-12T08:16:35;39.92;36.69;50.27;;
37223;Laerm;28026;48.562;14.440;2023-08-12T08:19:07;40.82;36.69;47.88;;
37223;Laerm;28026;48.562;14.440;2023-08-12T08:21:40;39.19;35.04;57.51;;
37223;Laerm;28026;48.562;14.440;2023-08-12T08:24:11;43.99;36.20;72.51;;
37223;Laerm;28026;48.562;14.440;2023-08-12T08:26:43;39.60;35.94;51.72;;
37223;Laerm;28026;48.562;14.440;2023-08-12T08:29:16;39.94;36.20;61.43;;
37223;Laerm;28026;48.562;14.440;2023-08-12T08:31:47;46.67;35.86;66.61;;
37223;Laerm;28026;48.562;14.440;2023-08-12T08:34:18;42.25;35.94;63.15;;
37223;Laerm;28026;48.562;14.440;2023-08-12T08:36:50;42.37;37.32;57.03;;
37223;Laerm;28026;48.562;14.440;2023-08-12T08:39:21;46.98;36.69;72.24;;
37223;Laerm;28026;48.562;14.440;2023-08-12T08:41:54;45.09;38.05;59.15;;
37223;Laerm;28026;48.562;14.440;2023-08-12T08:44:30;42.34;37.12;63.60;;
37223;Laerm;28026;48.562;14.440;2023-08-12T08:47:02;41.07;37.12;51.59;;
37223;Laerm;28026;48.562;14.440;2023-08-12T08:49:36;42.36;37.70;64.43;;
37223;Laerm;28026;48.562;14.440;2023-08-12T08:52:07;45.04;37.32;72.81;;
37223;Laerm;28026;48.562;14.440;2023-08-12T08:54:39;49.23;38.21;75.39;;
37223;Laerm;28026;48.562;14.440;2023-08-12T08:57:12;43.17;38.05;63.62;;
37223;Laerm;28026;48.562;14.440;2023-08-12T08:59:43;41.45;37.12;59.20;;
37223;Laerm;28026;48.562;14.440;2023-08-12T09:02:17;46.57;36.69;76.08;;
37223;Laerm;28026;48.562;14.440;2023-08-12T09:04:50;41.86;36.45;65.44;;
37223;Laerm;28026;48.562;14.440;2023-08-12T09:07:21;41.32;35.04;56.75;;
37223;Laerm;28026;48.562;14.440;2023-08-12T09:09:56;41.82;36.69;60.29;;
37223;Laerm;28026;48.562;14.440;2023-08-12T09:12:30;41.71;36.45;53.74;;
37223;Laerm;28026;48.562;14.440;2023-08-12T09:15:03;41.60;35.66;63.14;;
37223;Laerm;28026;48.562;14.440;2023-08-12T09:17:35;47.52;35.36;68.86;;
37223;Laerm;28026;48.562;14.440;2023-08-12T09:20:06;41.93;35.66;62.43;;
37223;Laerm;28026;48.562;14.440;2023-08-12T09:22:43;42.24;36.45;58.43;;
37223;Laerm;28026;48.562;14.440;2023-08-12T09:25:14;41.63;36.45;59.32;;
37223;Laerm;28026;48.562;14.440;2023-08-12T09:27:45;45.55;35.04;67.01;;
37223;Laerm;28026;48.562;14.440;2023-08-12T09:30:15;45.47;36.20;71.16;;
37223;Laerm;28026;48.562;14.440;2023-08-12T09:33:05;41.64;35.04;60.56;;
37223;Laerm;28026;48.562;14.440;2023-08-12T09:35:41;45.99;37.32;67.49;;
37223;Laerm;28026;48.562;14.440;2023-08-12T09:38:13;50.01;34.69;74.41;;
37223;Laerm;28026;48.562;14.440;2023-08-12T09:40:46;48.74;35.04;71.94;;
37223;Laerm;28026;48.562;14.440;2023-08-12T09:43:18;58.78;38.52;77.93;;
37223;Laerm;28026;48.562;14.440;2023-08-12T09:45:49;56.01;36.45;78.26;;
37223;Laerm;28026;48.562;14.440;2023-08-12T09:48:20;47.41;37.12;66.43;;
37223;Laerm;28026;48.562;14.440;2023-08-12T09:50:53;51.20;38.67;77.20;;
37223;Laerm;28026;48.562;14.440;2023-08-12T09:53:24;47.08;35.36;69.72;;
37223;Laerm;28026;48.562;14.440;2023-08-12T09:56:05;45.36;35.94;69.54;;
37223;Laerm;28026;48.562;14.440;2023-08-12T09:58:39;51.63;36.20;77.88;;
37223;Laerm;28026;48.562;14.440;2023-08-12T10:01:19;60.46;35.66;73.08;;
37223;Laerm;28026;48.562;14.440;2023-08-12T10:03:51;49.90;35.36;79.07;;
37223;Laerm;28026;48.562;14.440;2023-08-12T10:06:24;48.14;34.69;70.77;;
37223;Laerm;28026;48.562;14.440;2023-08-12T10:08:57;47.81;35.36;73.21;;
37223;Laerm;28026;48.562;14.440;2023-08-12T10:11:29;48.21;35.36;78.07;;
37223;Laerm;28026;48.562;14.440;2023-08-12T10:14:03;46.71;36.45;69.98;;
37223;Laerm;28026;48.562;14.440;2023-08-12T10:16:35;57.93;37.53;84.22;;
37223;Laerm;28026;48.562;14.440;2023-08-12T10:19:11;46.81;37.52;72.90;;
37223;Laerm;28026;48.562;14.440;2023-08-12T10:21:44;47.75;38.37;72.29;;
37223;Laerm;28026;48.562;14.440;2023-08-12T10:24:16;49.73;38.37;76.99;;
37223;Laerm;28026;48.562;14.440;2023-08-12T10:26:50;46.42;39.08;76.21;;
37223;Laerm;28026;48.562;14.440;2023-08-12T10:29:24;49.07;36.91;72.60;;
37223;Laerm;28026;48.562;14.440;2023-08-12T10:31:57;52.95;38.05;79.77;;
37223;Laerm;28026;48.562;14.440;2023-08-12T10:34:28;44.68;38.81;63.66;;
37223;Laerm;28026;48.562;14.440;2023-08-12T10:37:02;44.60;40.03;70.31;;
37223;Laerm;28026;48.562;14.440;2023-08-12T10:39:34;49.19;38.21;72.02;;
37223;Laerm;28026;48.562;14.440;2023-08-12T10:42:06;50.82;38.52;75.92;;
37223;Laerm;28026;48.562;14.440;2023-08-12T10:44:51;50.21;39.92;77.15;;
37223;Laerm;28026;48.562;14.440;2023-08-12T10:47:22;62.38;41.89;90.38;;
37223;Laerm;28026;48.562;14.440;2023-08-12T10:49:53;50.36;38.81;79.83;;
37223;Laerm;28026;48.562;14.440;2023-08-12T10:52:30;46.60;38.95;70.86;;
37223;Laerm;28026;48.562;14.440;2023-08-12T10:55:20;53.72;39.21;80.20;;
37223;Laerm;28026;48.562;14.440;2023-08-12T10:57:58;58.24;39.70;82.75;;
37223;Laerm;28026;48.562;14.440;2023-08-12T11:00:29;60.13;39.92;83.49;;
37223;Laerm;28026;48.562;14.440;2023-08-12T11:03:05;52.88;38.21;82.55;;
37223;Laerm;28026;48.562;14.440;2023-08-12T11:05:38;45.21;38.02;67.18;;
37223;Laerm;28026;48.562;14.440;2023-08-12T11:08:12;48.95;37.70;71.23;;
37223;Laerm;28026;48.562;14.440;2023-08-12T11:10:44;53.58;38.21;79.61;;
37223;Laerm;28026;48.562;14.440;2023-08-12T11:13:15;57.49;39.34;85.24;;
37223;Laerm;28026;48.562;14.440;2023-08-12T11:15:48;44.14;39.70;63.47;;
37223;Laerm;28026;48.562;14.440;2023-08-12T11:18:20;47.82;39.34;72.50;;
37223;Laerm;28026;48.562;14.440;2023-08-12T11:20:52;55.76;38.52;80.72;;
37223;Laerm;28026;48.562;14.440;2023-08-12T11:23:24;43.66;38.05;63.92;;
37223;Laerm;28026;48.562;14.440;2023-08-12T11:25:54;44.14;39.21;61.65;;
37223;Laerm;28026;48.562;14.440;2023-08-12T11:28:26;44.31;38.87;63.12;;
37223;Laerm;28026;48.562;14.440;2023-08-12T11:30:57;45.10;39.34;64.72;;
37223;Laerm;28026;48.562;14.440;2023-08-12T11:33:30;59.78;40.13;82.19;;
37223;Laerm;28026;48.562;14.440;2023-08-12T11:36:01;52.75;38.81;75.35;;
37223;Laerm;28026;48.562;14.440;2023-08-12T11:38:32;58.30;38.81;90.18;;
37223;Laerm;28026;48.562;14.440;2023-08-12T11:41:03;57.39;38.05;82.50;;
37223;Laerm;28026;48.562;14.440;2023-08-12T11:43:34;59.65;38.37;81.20;;
37223;Laerm;28026;48.562;14.440;2023-08-12T11:46:05;57.90;37.88;86.48;;
37223;Laerm;28026;48.562;14.440;2023-08-12T11:48:36;50.98;37.70;76.01;;
37223;Laerm;28026;48.562;14.440;2023-08-12T11:51:07;55.20;38.95;84.43;;
37223;Laerm;28026;48.562;14.440;2023-08-12T11:53:38;57.32;37.52;79.05;;
37223;Laerm;28026;48.562;14.440;2023-08-12T11:56:09;52.29;37.88;76.63;;
37223;Laerm;28026;48.562;14.440;2023-08-12T11:58:40;45.69;38.67;68.57;;
37223;Laerm;28026;48.562;14.440;2023-08-12T12:01:11;46.53;38.37;70.15;;
37223;Laerm;28026;48.562;14.440;2023-08-12T12:03:42;48.60;40.03;76.22;;
37223;Laerm;28026;48.562;14.440;2023-08-12T12:06:13;46.46;39.46;74.10;;
37223;Laerm;28026;48.562;14.440;2023-08-12T12:08:45;53.85;37.70;82.84;;
37223;Laerm;28026;48.562;14.440;2023-08-12T12:11:15;56.21;38.52;80.93;;
37223;Laerm;28026;48.562;14.440;2023-08-12T12:13:46;56.65;37.52;81.29;;
37223;Laerm;28026;48.562;14.440;2023-08-12T12:16:17;59.23;38.67;83.87;;
37223;Laerm;28026;48.562;14.440;2023-08-12T12:18:48;50.48;39.34;75.28;;
37223;Laerm;28026;48.562;14.440;2023-08-12T12:21:22;52.84;37.70;79.64;;
37223;Laerm;28026;48.562;14.440;2023-08-12T12:23:53;54.65;38.37;83.92;;
37223;Laerm;28026;48.562;14.440;2023-08-12T12:26:24;56.41;37.52;78.28;;
37223;Laerm;28026;48.562;14.440;2023-08-12T12:28:55;43.02;36.91;62.44;;
37223;Laerm;28026;48.562;14.440;2023-08-12T12:31:26;59.09;37.87;83.06;;
37223;Laerm;28026;48.562;14.440;2023-08-12T12:33:57;53.38;35.66;77.89;;
37223;Laerm;28026;48.562;14.440;2023-08-12T12:36:28;53.30;37.32;80.63;;
37223;Laerm;28026;48.562;14.440;2023-08-12T12:38:58;52.46;36.20;80.03;;
37223;Laerm;28026;48.562;14.440;2023-08-12T12:41:30;46.20;36.45;70.46;;
37223;Laerm;28026;48.562;14.440;2023-08-12T12:44:02;49.12;36.45;71.21;;
37223;Laerm;28026;48.562;14.440;2023-08-12T12:46:33;50.26;35.36;78.86;;
37223;Laerm;28026;48.562;14.440;2023-08-12T12:49:04;43.62;38.21;63.41;;
37223;Laerm;28026;48.562;14.440;2023-08-12T12:51:35;57.17;37.52;81.04;;
37223;Laerm;28026;48.562;14.440;2023-08-12T12:54:06;48.16;35.04;73.40;;
37223;Laerm;28026;48.562;14.440;2023-08-12T12:56:36;51.64;36.91;78.03;;
37223;Laerm;28026;48.562;14.440;2023-08-12T12:59:07;54.10;37.12;86.34;;
37223;Laerm;28026;48.562;14.440;2023-08-12T13:01:38;50.93;37.32;72.02;;
37223;Laerm;28026;48.562;14.440;2023-08-12T13:04:09;59.16;38.21;82.74;;
37223;Laerm;28026;48.562;14.440;2023-08-12T13:06:40;45.19;38.37;71.24;;
37223;Laerm;28026;48.562;14.440;2023-08-12T13:09:11;45.55;37.88;68.19;;
37223;Laerm;28026;48.562;14.440;2023-08-12T13:11:42;50.01;38.95;73.08;;
37223;Laerm;28026;48.562;14.440;2023-08-12T13:14:13;46.36;39.34;68.83;;
37223;Laerm;28026;48.562;14.440;2023-08-12T13:16:43;47.07;37.32;66.29;;
37223;Laerm;28026;48.562;14.440;2023-08-12T13:19:14;58.26;37.32;84.38;;
37223;Laerm;28026;48.562;14.440;2023-08-12T13:21:45;59.41;37.32;86.47;;
37223;Laerm;28026;48.562;14.440;2023-08-12T13:24:16;57.82;37.88;82.08;;
37223;Laerm;28026;48.562;14.440;2023-08-12T13:26:47;52.74;37.70;80.68;;
37223;Laerm;28026;48.562;14.440;2023-08-12T13:29:18;52.19;37.17;76.42;;
37223;Laerm;28026;48.562;14.440;2023-08-12T13:31:49;53.44;36.20;76.22;;
37223;Laerm;28026;48.562;14.440;2023-08-12T13:34:19;56.55;39.81;82.54;;
37223;Laerm;28026;48.562;14.440;2023-08-12T13:36:50;53.04;37.70;75.15;;
37223;Laerm;28026;48.562;14.440;2023-08-12T13:39:21;49.54;38.21;76.49;;
37223;Laerm;28026;48.562;14.440;2023-08-12T13:41:52;49.24;38.02;71.75;;
37223;Laerm;28026;48.562;14.440;2023-08-12T13:44:25;48.29;37.12;72.92;;
37223;Laerm;28026;48.562;14.440;2023-08-12T13:46:56;62.76;37.88;92.52;;
37223;Laerm;28026;48.562;14.440;2023-08-12T13:49:27;58.06;37.88;83.98;;
37223;Laerm;28026;48.562;14.440;2023-08-12T13:51:58;53.83;38.05;77.12;;
37223;Laerm;28026;48.562;14.440;2023-08-12T13:54:30;55.47;38.99;83.46;;
37223;Laerm;28026;48.562;14.440;2023-08-12T13:57:02;54.51;38.67;77.20;;